Chocorua, NH (03817)

12:09 AM EST on February 22, 2017 (GMT -0500)
silver lake | | Change Station
Active Advisory: Special Statement

Elev 509 ft 43.88 °N, 71.18 °W | Updated 25 seconds ago

Mostly Cloudy
Mostly Cloudy
31.6 °F
Feels Like 32 °F
N
0.0
Wind Variable Wind from SSE

Today
High -- | Low -- °F
--% Chance of Precip.
Yesterday
High -- | Low -- °F
Precip. -- in
Pressure 30.06 in
Visibility 10.0 miles
Clouds Mostly Cloudy 11000 ft
Windchill 32 °F
Dew Point 25 °F
Humidity 78%
Rainfall 0.00 in
Snow Depth Not available.
6:32 AM 5:24 PM
Waning Crescent, 20% visible
METAR KIZG 220454Z AUTO 16004KT 10SM BKN110 01/M04 A3004 RMK AO2 SLP177 T00061044 400671139
Pressure 30.06 in
Visibility 10.0 miles
Clouds Mostly Cloudy 11000 ft
Windchill 32 °F
Dew Point 25 °F
Humidity 78%
Rainfall 0.00 in
Snow Depth Not available.
6:32 AM 5:24 PM
Waning Crescent, 20% visible
METAR KIZG 220454Z AUTO 16004KT 10SM BKN110 01/M04 A3004 RMK AO2 SLP177 T00061044 400671139

Get Your Daily Forecast Email!

Thanks for signing up!

Be on the lookout for a verification email in your inbox.

You'll start receiving the daily forecast at 8 AM.

×

10-Day Weather Forecast

Almanac

Astronomy

Feb. 22, 2017 Rise Set
Actual Time
Civil Twilight
Nautical Twilight
Astronomical Twilight
Moon
Length of Visible Light
Length of Day
Tomorrow will be .
, % of the Moon is Illuminated

Today's Extremes

State Highs State Lows

Community

WunderPhotos

Upload Photos

1,962,540 photos uploaded!

WunderBlog® & News

Nearby

Air Quality

  Air Quality AQ Index Pollutant
Not available.

Snow Depth

Station Depth Elevation

Earthquake Activity

City Distance Mag. Time & Date
Minimum magnitude displayed is 2.5.

Coastal Water Temperatures

Place Temperature

Stations

Nearby Weather Stations

Station Location Temp. Windchill Dew Point Humidity Wind Precip. Elev Updated Type
                   

Watches & Warnings

Special Statement
Issued: 10:32 PM EST Feb. 21, 2017 – National Weather Service

... A few icy patches possible tonight...

A few patches of very light rain are moving into New Hampshire
overnight. With the temperature near freezing, there could be a
few icy patches that develop. Any wet spots on roadways should be
treated with caution as they may be icy.


Kimble


1032 PM EST Tue Feb 21 2017

... A few icy patches possible tonight...

A few patches of very light rain are moving into New Hampshire
overnight. With the temperature near freezing, there could be a
few icy patches that develop. Any wet spots on roadways should be
treated with caution as they may be icy.


Kimble